sensor_id;sensor_type;location;lat;lon;timestamp;P1;durP1;ratioP1;P2;durP2;ratioP2
45905;SDS011;31619;49.008;12.106;2023-03-12T00:00:37;5.20;;;4.70;;
45905;SDS011;31619;49.008;12.106;2023-03-12T00:03:03;6.37;;;5.03;;
45905;SDS011;31619;49.008;12.106;2023-03-12T00:05:29;5.23;;;4.57;;
45905;SDS011;31619;49.008;12.106;2023-03-12T00:07:54;5.17;;;4.80;;
45905;SDS011;31619;49.008;12.106;2023-03-12T00:10:23;5.50;;;4.80;;
45905;SDS011;31619;49.008;12.106;2023-03-12T00:12:50;5.53;;;4.50;;
45905;SDS011;31619;49.008;12.106;2023-03-12T00:15:15;5.23;;;4.73;;
45905;SDS011;31619;49.008;12.106;2023-03-12T00:17:41;5.40;;;4.90;;
45905;SDS011;31619;49.008;12.106;2023-03-12T00:20:07;5.60;;;4.53;;
45905;SDS011;31619;49.008;12.106;2023-03-12T00:22:33;5.20;;;4.70;;
45905;SDS011;31619;49.008;12.106;2023-03-12T00:24:58;5.83;;;4.70;;
45905;SDS011;31619;49.008;12.106;2023-03-12T00:27:24;7.33;;;4.63;;
45905;SDS011;31619;49.008;12.106;2023-03-12T00:29:51;6.57;;;4.70;;
45905;SDS011;31619;49.008;12.106;2023-03-12T00:32:16;6.17;;;4.70;;
45905;SDS011;31619;49.008;12.106;2023-03-12T00:34:42;5.00;;;4.50;;
45905;SDS011;31619;49.008;12.106;2023-03-12T00:37:08;6.03;;;4.70;;
45905;SDS011;31619;49.008;12.106;2023-03-12T00:39:34;6.87;;;5.30;;
45905;SDS011;31619;49.008;12.106;2023-03-12T00:42:00;4.60;;;4.27;;
45905;SDS011;31619;49.008;12.106;2023-03-12T00:44:25;4.90;;;4.50;;
45905;SDS011;31619;49.008;12.106;2023-03-12T00:46:51;5.00;;;4.50;;
45905;SDS011;31619;49.008;12.106;2023-03-12T00:49:17;4.90;;;4.40;;
45905;SDS011;31619;49.008;12.106;2023-03-12T00:51:43;6.20;;;4.83;;
45905;SDS011;31619;49.008;12.106;2023-03-12T00:54:09;4.80;;;4.40;;
45905;SDS011;31619;49.008;12.106;2023-03-12T00:56:35;4.60;;;4.20;;
45905;SDS011;31619;49.008;12.106;2023-03-12T00:59:00;4.00;;;3.60;;
45905;SDS011;31619;49.008;12.106;2023-03-12T01:01:26;5.33;;;3.80;;
45905;SDS011;31619;49.008;12.106;2023-03-12T01:03:52;4.97;;;4.50;;
45905;SDS011;31619;49.008;12.106;2023-03-12T01:06:19;3.77;;;3.47;;
45905;SDS011;31619;49.008;12.106;2023-03-12T01:08:44;5.37;;;4.00;;
45905;SDS011;31619;49.008;12.106;2023-03-12T01:11:14;4.73;;;4.07;;
45905;SDS011;31619;49.008;12.106;2023-03-12T01:13:41;4.77;;;3.90;;
45905;SDS011;31619;49.008;12.106;2023-03-12T01:16:06;4.63;;;4.17;;
45905;SDS011;31619;49.008;12.106;2023-03-12T01:18:33;4.37;;;3.93;;
45905;SDS011;31619;49.008;12.106;2023-03-12T01:20:58;4.70;;;4.23;;
45905;SDS011;31619;49.008;12.106;2023-03-12T01:23:24;4.47;;;4.07;;
45905;SDS011;31619;49.008;12.106;2023-03-12T01:25:50;4.73;;;4.33;;
45905;SDS011;31619;49.008;12.106;2023-03-12T01:28:19;4.20;;;3.90;;
45905;SDS011;31619;49.008;12.106;2023-03-12T01:30:48;4.23;;;3.93;;
45905;SDS011;31619;49.008;12.106;2023-03-12T01:33:13;4.90;;;4.40;;
45905;SDS011;31619;49.008;12.106;2023-03-12T01:35:40;5.30;;;4.80;;
45905;SDS011;31619;49.008;12.106;2023-03-12T01:38:06;6.77;;;4.20;;
45905;SDS011;31619;49.008;12.106;2023-03-12T01:40:33;5.27;;;4.60;;
45905;SDS011;31619;49.008;12.106;2023-03-12T01:43:20;4.77;;;4.37;;
45905;SDS011;31619;49.008;12.106;2023-03-12T01:51:23;5.20;;;4.70;;
45905;SDS011;31619;49.008;12.106;2023-03-12T01:53:51;6.37;;;5.50;;
45905;SDS011;31619;49.008;12.106;2023-03-12T01:56:20;10.90;;;8.07;;
45905;SDS011;31619;49.008;12.106;2023-03-12T01:58:50;8.23;;;7.43;;
45905;SDS011;31619;49.008;12.106;2023-03-12T02:01:18;7.90;;;6.80;;
45905;SDS011;31619;49.008;12.106;2023-03-12T02:03:46;7.43;;;6.67;;
45905;SDS011;31619;49.008;12.106;2023-03-12T02:06:15;8.50;;;6.97;;
45905;SDS011;31619;49.008;12.106;2023-03-12T02:08:44;8.77;;;7.10;;
45905;SDS011;31619;49.008;12.106;2023-03-12T02:11:12;9.63;;;6.27;;
45905;SDS011;31619;49.008;12.106;2023-03-12T02:13:38;6.93;;;6.23;;
45905;SDS011;31619;49.008;12.106;2023-03-12T02:16:04;7.87;;;7.07;;
45905;SDS011;31619;49.008;12.106;2023-03-12T02:18:31;7.27;;;6.50;;
45905;SDS011;31619;49.008;12.106;2023-03-12T02:23:54;9.03;;;6.67;;
45905;SDS011;31619;49.008;12.106;2023-03-12T02:26:26;8.27;;;6.83;;
45905;SDS011;31619;49.008;12.106;2023-03-12T02:28:53;9.67;;;7.20;;
45905;SDS011;31619;49.008;12.106;2023-03-12T02:31:21;7.83;;;7.03;;
45905;SDS011;31619;49.008;12.106;2023-03-12T02:33:51;8.53;;;6.47;;
45905;SDS011;31619;49.008;12.106;2023-03-12T02:36:18;7.17;;;6.47;;
45905;SDS011;31619;49.008;12.106;2023-03-12T02:38:45;6.27;;;5.63;;
45905;SDS011;31619;49.008;12.106;2023-03-12T02:41:19;8.27;;;7.13;;
45905;SDS011;31619;49.008;12.106;2023-03-12T02:43:55;6.93;;;6.23;;
45905;SDS011;31619;49.008;12.106;2023-03-12T02:46:35;12.10;;;7.40;;
45905;SDS011;31619;49.008;12.106;2023-03-12T02:49:04;8.87;;;6.77;;
45905;SDS011;31619;49.008;12.106;2023-03-12T02:51:30;8.17;;;7.30;;
45905;SDS011;31619;49.008;12.106;2023-03-12T02:53:55;7.90;;;7.10;;
45905;SDS011;31619;49.008;12.106;2023-03-12T02:56:22;7.23;;;6.53;;
45905;SDS011;31619;49.008;12.106;2023-03-12T02:58:49;9.00;;;6.87;;
45905;SDS011;31619;49.008;12.106;2023-03-12T03:01:14;6.63;;;5.83;;
45905;SDS011;31619;49.008;12.106;2023-03-12T03:03:40;6.93;;;6.10;;
45905;SDS011;31619;49.008;12.106;2023-03-12T03:06:06;7.03;;;6.23;;
45905;SDS011;31619;49.008;12.106;2023-03-12T03:08:31;7.90;;;6.37;;
45905;SDS011;31619;49.008;12.106;2023-03-12T03:10:57;6.43;;;5.83;;
45905;SDS011;31619;49.008;12.106;2023-03-12T03:13:24;6.57;;;5.93;;
45905;SDS011;31619;49.008;12.106;2023-03-12T03:15:50;7.57;;;6.37;;
45905;SDS011;31619;49.008;12.106;2023-03-12T03:18:15;6.37;;;5.73;;
45905;SDS011;31619;49.008;12.106;2023-03-12T03:20:41;8.03;;;7.23;;
45905;SDS011;31619;49.008;12.106;2023-03-12T03:23:08;6.93;;;6.30;;
45905;SDS011;31619;49.008;12.106;2023-03-12T03:25:34;7.37;;;6.63;;
45905;SDS011;31619;49.008;12.106;2023-03-12T03:28:00;10.67;;;6.40;;
45905;SDS011;31619;49.008;12.106;2023-03-12T03:30:26;5.63;;;5.13;;
45905;SDS011;31619;49.008;12.106;2023-03-12T03:32:51;6.03;;;5.43;;
45905;SDS011;31619;49.008;12.106;2023-03-12T03:35:17;5.80;;;5.13;;
45905;SDS011;31619;49.008;12.106;2023-03-12T03:37:43;5.93;;;5.30;;
45905;SDS011;31619;49.008;12.106;2023-03-12T03:40:08;5.90;;;5.23;;
45905;SDS011;31619;49.008;12.106;2023-03-12T03:42:36;6.03;;;5.13;;
45905;SDS011;31619;49.008;12.106;2023-03-12T03:45:03;8.40;;;5.90;;
45905;SDS011;31619;49.008;12.106;2023-03-12T03:47:30;8.70;;;6.13;;
45905;SDS011;31619;49.008;12.106;2023-03-12T03:49:55;6.00;;;5.50;;
45905;SDS011;31619;49.008;12.106;2023-03-12T03:52:21;9.00;;;6.07;;
45905;SDS011;31619;49.008;12.106;2023-03-12T03:54:47;6.03;;;5.43;;
45905;SDS011;31619;49.008;12.106;2023-03-12T03:57:12;5.50;;;5.00;;
45905;SDS011;31619;49.008;12.106;2023-03-12T03:59:38;5.70;;;5.10;;
45905;SDS011;31619;49.008;12.106;2023-03-12T04:02:03;5.03;;;4.50;;
45905;SDS011;31619;49.008;12.106;2023-03-12T04:04:29;5.73;;;5.20;;
45905;SDS011;31619;49.008;12.106;2023-03-12T04:06:55;6.33;;;5.73;;
45905;SDS011;31619;49.008;12.106;2023-03-12T04:09:21;6.47;;;4.67;;
45905;SDS011;31619;49.008;12.106;2023-03-12T04:11:46;4.87;;;4.33;;
45905;SDS011;31619;49.008;12.106;2023-03-12T04:14:12;5.50;;;4.93;;
45905;SDS011;31619;49.008;12.106;2023-03-12T04:16:37;6.03;;;5.30;;
45905;SDS011;31619;49.008;12.106;2023-03-12T04:19:03;7.17;;;5.20;;
45905;SDS011;31619;49.008;12.106;2023-03-12T04:21:29;5.80;;;4.90;;
45905;SDS011;31619;49.008;12.106;2023-03-12T04:23:54;5.27;;;4.60;;
45905;SDS011;31619;49.008;12.106;2023-03-12T04:26:20;5.57;;;4.80;;
45905;SDS011;31619;49.008;12.106;2023-03-12T04:28:45;5.67;;;4.67;;
45905;SDS011;31619;49.008;12.106;2023-03-12T04:31:11;5.60;;;4.93;;
45905;SDS011;31619;49.008;12.106;2023-03-12T04:33:37;5.03;;;4.47;;
45905;SDS011;31619;49.008;12.106;2023-03-12T04:36:04;5.10;;;4.70;;
45905;SDS011;31619;49.008;12.106;2023-03-12T04:38:31;6.53;;;5.13;;
45905;SDS011;31619;49.008;12.106;2023-03-12T04:41:01;4.97;;;4.47;;
45905;SDS011;31619;49.008;12.106;2023-03-12T04:43:29;4.70;;;4.30;;
45905;SDS011;31619;49.008;12.106;2023-03-12T04:45:56;6.17;;;4.07;;
45905;SDS011;31619;49.008;12.106;2023-03-12T04:48:22;4.70;;;4.20;;
45905;SDS011;31619;49.008;12.106;2023-03-12T04:50:48;4.90;;;4.50;;
45905;SDS011;31619;49.008;12.106;2023-03-12T04:53:14;5.27;;;4.67;;
45905;SDS011;31619;49.008;12.106;2023-03-12T04:55:40;5.73;;;4.83;;
45905;SDS011;31619;49.008;12.106;2023-03-12T04:58:06;5.53;;;5.03;;
45905;SDS011;31619;49.008;12.106;2023-03-12T05:00:31;8.13;;;4.93;;
45905;SDS011;31619;49.008;12.106;2023-03-12T05:02:57;6.40;;;4.60;;
45905;SDS011;31619;49.008;12.106;2023-03-12T05:05:22;5.23;;;4.77;;
45905;SDS011;31619;49.008;12.106;2023-03-12T05:07:48;5.70;;;5.20;;
45905;SDS011;31619;49.008;12.106;2023-03-12T05:10:14;6.13;;;5.53;;
45905;SDS011;31619;49.008;12.106;2023-03-12T05:12:39;5.50;;;5.00;;
45905;SDS011;31619;49.008;12.106;2023-03-12T05:15:05;6.50;;;5.07;;
45905;SDS011;31619;49.008;12.106;2023-03-12T05:17:31;7.97;;;5.77;;
45905;SDS011;31619;49.008;12.106;2023-03-12T05:19:56;8.40;;;5.77;;
45905;SDS011;31619;49.008;12.106;2023-03-12T05:22:22;6.07;;;5.43;;
45905;SDS011;31619;49.008;12.106;2023-03-12T05:24:48;7.43;;;5.40;;
45905;SDS011;31619;49.008;12.106;2023-03-12T05:27:13;5.13;;;4.70;;
45905;SDS011;31619;49.008;12.106;2023-03-12T05:29:39;6.97;;;4.33;;
45905;SDS011;31619;49.008;12.106;2023-03-12T05:32:04;5.00;;;4.33;;
45905;SDS011;31619;49.008;12.106;2023-03-12T05:34:31;4.77;;;4.37;;
45905;SDS011;31619;49.008;12.106;2023-03-12T05:36:57;5.50;;;4.57;;
45905;SDS011;31619;49.008;12.106;2023-03-12T05:39:24;4.93;;;4.17;;
45905;SDS011;31619;49.008;12.106;2023-03-12T05:41:50;5.00;;;4.03;;
45905;SDS011;31619;49.008;12.106;2023-03-12T05:44:18;4.50;;;4.10;;
45905;SDS011;31619;49.008;12.106;2023-03-12T05:46:43;4.73;;;4.23;;
45905;SDS011;31619;49.008;12.106;2023-03-12T05:49:09;4.80;;;4.30;;
45905;SDS011;31619;49.008;12.106;2023-03-12T05:51:35;4.57;;;3.97;;
45905;SDS011;31619;49.008;12.106;2023-03-12T05:54:00;5.00;;;4.07;;
45905;SDS011;31619;49.008;12.106;2023-03-12T05:56:27;5.00;;;3.93;;
45905;SDS011;31619;49.008;12.106;2023-03-12T05:58:53;3.60;;;3.33;;
45905;SDS011;31619;49.008;12.106;2023-03-12T06:01:20;4.30;;;3.90;;
45905;SDS011;31619;49.008;12.106;2023-03-12T06:03:47;4.13;;;3.73;;
45905;SDS011;31619;49.008;12.106;2023-03-12T06:06:13;4.50;;;4.10;;
45905;SDS011;31619;49.008;12.106;2023-03-12T06:08:40;4.30;;;3.87;;
45905;SDS011;31619;49.008;12.106;2023-03-12T06:11:06;5.03;;;3.57;;
45905;SDS011;31619;49.008;12.106;2023-03-12T06:13:32;4.60;;;3.97;;
45905;SDS011;31619;49.008;12.106;2023-03-12T06:16:02;4.00;;;3.70;;
45905;SDS011;31619;49.008;12.106;2023-03-12T06:18:32;4.03;;;3.67;;
45905;SDS011;31619;49.008;12.106;2023-03-12T06:21:17;3.83;;;3.53;;
45905;SDS011;31619;49.008;12.106;2023-03-12T06:23:45;3.93;;;3.60;;
45905;SDS011;31619;49.008;12.106;2023-03-12T06:26:11;5.30;;;3.83;;
45905;SDS011;31619;49.008;12.106;2023-03-12T06:28:37;5.03;;;4.23;;
45905;SDS011;31619;49.008;12.106;2023-03-12T06:31:03;4.10;;;3.53;;
45905;SDS011;31619;49.008;12.106;2023-03-12T06:33:29;4.10;;;3.63;;
45905;SDS011;31619;49.008;12.106;2023-03-12T06:35:56;4.60;;;4.03;;
45905;SDS011;31619;49.008;12.106;2023-03-12T06:38:23;4.27;;;3.87;;
45905;SDS011;31619;49.008;12.106;2023-03-12T06:40:56;5.07;;;3.87;;
45905;SDS011;31619;49.008;12.106;2023-03-12T06:43:23;4.17;;;3.83;;
45905;SDS011;31619;49.008;12.106;2023-03-12T06:45:50;3.97;;;3.63;;
45905;SDS011;31619;49.008;12.106;2023-03-12T06:48:16;4.57;;;3.65;;
45905;SDS011;31619;49.008;12.106;2023-03-12T06:50:41;5.10;;;3.80;;
45905;SDS011;31619;49.008;12.106;2023-03-12T06:53:07;3.83;;;3.53;;
45905;SDS011;31619;49.008;12.106;2023-03-12T06:55:33;4.53;;;4.23;;
45905;SDS011;31619;49.008;12.106;2023-03-12T06:57:58;4.23;;;3.83;;
45905;SDS011;31619;49.008;12.106;2023-03-12T07:00:24;4.40;;;3.80;;
45905;SDS011;31619;49.008;12.106;2023-03-12T07:02:49;4.90;;;4.40;;
45905;SDS011;31619;49.008;12.106;2023-03-12T07:05:15;5.07;;;4.33;;
45905;SDS011;31619;49.008;12.106;2023-03-12T07:07:41;4.83;;;4.37;;
45905;SDS011;31619;49.008;12.106;2023-03-12T07:10:07;5.13;;;3.87;;
45905;SDS011;31619;49.008;12.106;2023-03-12T07:12:34;4.25;;;3.95;;
45905;SDS011;31619;49.008;12.106;2023-03-12T07:15:00;4.00;;;3.67;;
45905;SDS011;31619;49.008;12.106;2023-03-12T07:17:26;5.55;;;3.95;;
45905;SDS011;31619;49.008;12.106;2023-03-12T07:19:51;5.05;;;3.88;;
45905;SDS011;31619;49.008;12.106;2023-03-12T07:22:17;4.15;;;3.63;;
45905;SDS011;31619;49.008;12.106;2023-03-12T07:24:42;3.97;;;3.67;;
45905;SDS011;31619;49.008;12.106;2023-03-12T07:27:08;4.97;;;4.07;;
45905;SDS011;31619;49.008;12.106;2023-03-12T07:29:34;3.95;;;3.65;;
45905;SDS011;31619;49.008;12.106;2023-03-12T07:32:00;4.43;;;3.95;;
45905;SDS011;31619;49.008;12.106;2023-03-12T07:34:26;4.03;;;3.72;;
45905;SDS011;31619;49.008;12.106;2023-03-12T07:36:51;3.90;;;3.65;;
45905;SDS011;31619;49.008;12.106;2023-03-12T07:39:18;4.93;;;4.53;;
45905;SDS011;31619;49.008;12.106;2023-03-12T07:41:44;4.53;;;4.13;;
45905;SDS011;31619;49.008;12.106;2023-03-12T07:44:09;5.65;;;4.30;;
45905;SDS011;31619;49.008;12.106;2023-03-12T07:46:35;4.80;;;4.40;;
45905;SDS011;31619;49.008;12.106;2023-03-12T07:49:01;4.07;;;3.80;;
45905;SDS011;31619;49.008;12.106;2023-03-12T07:51:26;5.97;;;4.38;;
45905;SDS011;31619;49.008;12.106;2023-03-12T07:53:52;4.32;;;4.03;;
45905;SDS011;31619;49.008;12.106;2023-03-12T07:56:18;4.85;;;4.30;;
45905;SDS011;31619;49.008;12.106;2023-03-12T07:58:43;4.07;;;3.78;;
45905;SDS011;31619;49.008;12.106;2023-03-12T08:01:09;4.55;;;4.15;;
45905;SDS011;31619;49.008;12.106;2023-03-12T08:03:34;4.30;;;3.97;;
45905;SDS011;31619;49.008;12.106;2023-03-12T08:06:01;5.00;;;4.60;;
45905;SDS011;31619;49.008;12.106;2023-03-12T08:08:28;4.97;;;3.92;;
45905;SDS011;31619;49.008;12.106;2023-03-12T08:10:55;5.22;;;4.82;;
45905;SDS011;31619;49.008;12.106;2023-03-12T08:13:21;4.35;;;4.05;;
45905;SDS011;31619;49.008;12.106;2023-03-12T08:15:51;5.20;;;4.43;;
45905;SDS011;31619;49.008;12.106;2023-03-12T08:18:17;4.72;;;4.18;;
45905;SDS011;31619;49.008;12.106;2023-03-12T08:20:43;4.03;;;3.63;;
45905;SDS011;31619;49.008;12.106;2023-03-12T08:23:09;4.95;;;4.40;;
45905;SDS011;31619;49.008;12.106;2023-03-12T08:25:35;4.80;;;4.32;;
45905;SDS011;31619;49.008;12.106;2023-03-12T08:28:02;6.78;;;4.22;;
45905;SDS011;31619;49.008;12.106;2023-03-12T08:30:28;4.43;;;4.13;;
45905;SDS011;31619;49.008;12.106;2023-03-12T08:32:55;4.82;;;4.43;;
45905;SDS011;31619;49.008;12.106;2023-03-12T08:35:20;6.03;;;4.72;;
45905;SDS011;31619;49.008;12.106;2023-03-12T08:37:46;4.68;;;4.32;;
45905;SDS011;31619;49.008;12.106;2023-03-12T08:40:12;5.05;;;4.65;;
45905;SDS011;31619;49.008;12.106;2023-03-12T08:42:41;4.80;;;4.03;;
45905;SDS011;31619;49.008;12.106;2023-03-12T08:45:08;4.90;;;4.43;;
45905;SDS011;31619;49.008;12.106;2023-03-12T08:47:36;4.65;;;4.18;;
45905;SDS011;31619;49.008;12.106;2023-03-12T08:50:04;4.70;;;4.28;;
45905;SDS011;31619;49.008;12.106;2023-03-12T08:52:30;4.60;;;4.10;;
45905;SDS011;31619;49.008;12.106;2023-03-12T08:54:55;5.00;;;4.60;;
45905;SDS011;31619;49.008;12.106;2023-03-12T08:57:21;4.82;;;4.40;;
45905;SDS011;31619;49.008;12.106;2023-03-12T08:59:47;4.32;;;4.03;;
45905;SDS011;31619;49.008;12.106;2023-03-12T09:02:12;5.10;;;4.63;;
45905;SDS011;31619;49.008;12.106;2023-03-12T09:04:38;4.32;;;4.00;;
45905;SDS011;31619;49.008;12.106;2023-03-12T09:07:04;4.10;;;3.80;;
45905;SDS011;31619;49.008;12.106;2023-03-12T09:09:29;3.65;;;3.45;;
45905;SDS011;31619;49.008;12.106;2023-03-12T09:11:56;4.43;;;4.03;;
45905;SDS011;31619;49.008;12.106;2023-03-12T09:14:21;3.65;;;3.42;;
45905;SDS011;31619;49.008;12.106;2023-03-12T09:16:47;4.28;;;3.88;;
45905;SDS011;31619;49.008;12.106;2023-03-12T09:19:14;4.00;;;3.70;;
45905;SDS011;31619;49.008;12.106;2023-03-12T09:21:39;3.83;;;3.53;;
45905;SDS011;31619;49.008;12.106;2023-03-12T09:24:05;3.40;;;3.10;;
45905;SDS011;31619;49.008;12.106;2023-03-12T09:26:31;3.97;;;3.67;;
45905;SDS011;31619;49.008;12.106;2023-03-12T09:28:57;3.55;;;3.33;;
45905;SDS011;31619;49.008;12.106;2023-03-12T09:31:23;3.80;;;3.50;;
45905;SDS011;31619;49.008;12.106;2023-03-12T09:33:50;3.67;;;3.40;;
45905;SDS011;31619;49.008;12.106;2023-03-12T09:36:16;4.15;;;3.75;;
45905;SDS011;31619;49.008;12.106;2023-03-12T09:38:42;4.00;;;3.70;;
45905;SDS011;31619;49.008;12.106;2023-03-12T09:41:16;3.97;;;3.03;;
45905;SDS011;31619;49.008;12.106;2023-03-12T09:43:46;3.28;;;3.08;;
45905;SDS011;31619;49.008;12.106;2023-03-12T09:46:19;3.95;;;3.60;;
45905;SDS011;31619;49.008;12.106;2023-03-12T09:48:54;4.32;;;3.38;;
45905;SDS011;31619;49.008;12.106;2023-03-12T09:51:42;3.28;;;2.90;;
45905;SDS011;31619;49.008;12.106;2023-03-12T09:54:20;2.63;;;2.47;;
45905;SDS011;31619;49.008;12.106;2023-03-12T09:56:57;3.35;;;2.72;;
45905;SDS011;31619;49.008;12.106;2023-03-12T09:59:27;2.60;;;2.50;;
45905;SDS011;31619;49.008;12.106;2023-03-12T10:01:56;2.42;;;1.92;;
45905;SDS011;31619;49.008;12.106;2023-03-12T10:07:18;3.15;;;2.65;;
45905;SDS011;31619;49.008;12.106;2023-03-12T10:10:02;2.88;;;2.28;;
45905;SDS011;31619;49.008;12.106;2023-03-12T10:15:55;2.63;;;2.40;;
45905;SDS011;31619;49.008;12.106;2023-03-12T10:24:18;2.63;;;2.50;;
45905;SDS011;31619;49.008;12.106;2023-03-12T10:27:10;3.78;;;3.17;;
45905;SDS011;31619;49.008;12.106;2023-03-12T10:29:40;3.08;;;2.45;;
45905;SDS011;31619;49.008;12.106;2023-03-12T10:32:12;5.95;;;3.50;;
45905;SDS011;31619;49.008;12.106;2023-03-12T10:34:48;4.28;;;3.33;;
45905;SDS011;31619;49.008;12.106;2023-03-12T10:37:32;3.47;;;3.22;;
45905;SDS011;31619;49.008;12.106;2023-03-12T10:40:03;3.47;;;3.13;;
45905;SDS011;31619;49.008;12.106;2023-03-12T10:42:30;4.05;;;3.65;;
45905;SDS011;31619;49.008;12.106;2023-03-12T10:49:49;3.63;;;2.90;;
45905;SDS011;31619;49.008;12.106;2023-03-12T10:52:19;2.75;;;2.33;;
45905;SDS011;31619;49.008;12.106;2023-03-12T10:54:46;3.00;;;2.80;;
45905;SDS011;31619;49.008;12.106;2023-03-12T10:57:14;3.40;;;3.10;;
45905;SDS011;31619;49.008;12.106;2023-03-12T10:59:41;3.45;;;3.00;;
45905;SDS011;31619;49.008;12.106;2023-03-12T11:02:31;3.00;;;2.58;;
45905;SDS011;31619;49.008;12.106;2023-03-12T11:05:19;2.10;;;2.00;;
45905;SDS011;31619;49.008;12.106;2023-03-12T11:07:49;3.10;;;2.90;;
45905;SDS011;31619;49.008;12.106;2023-03-12T11:12:50;4.38;;;3.67;;
45905;SDS011;31619;49.008;12.106;2023-03-12T11:15:23;3.67;;;3.10;;
45905;SDS011;31619;49.008;12.106;2023-03-12T11:17:49;3.33;;;3.13;;
45905;SDS011;31619;49.008;12.106;2023-03-12T11:22:49;3.55;;;2.97;;
45905;SDS011;31619;49.008;12.106;2023-03-12T11:25:27;5.30;;;4.80;;
45905;SDS011;31619;49.008;12.106;2023-03-12T11:27:59;4.22;;;3.92;;
45905;SDS011;31619;49.008;12.106;2023-03-12T11:30:28;5.18;;;4.30;;
45905;SDS011;31619;49.008;12.106;2023-03-12T11:33:00;5.38;;;4.88;;
45905;SDS011;31619;49.008;12.106;2023-03-12T11:38:22;4.65;;;4.25;;
45905;SDS011;31619;49.008;12.106;2023-03-12T11:43:56;5.38;;;4.45;;
45905;SDS011;31619;49.008;12.106;2023-03-12T11:51:49;5.57;;;5.03;;
45905;SDS011;31619;49.008;12.106;2023-03-12T12:05:17;7.47;;;4.90;;
45905;SDS011;31619;49.008;12.106;2023-03-12T12:07:50;5.50;;;5.00;;
45905;SDS011;31619;49.008;12.106;2023-03-12T12:13:39;4.63;;;4.20;;
45905;SDS011;31619;49.008;12.106;2023-03-12T12:22:23;5.35;;;4.85;;
45905;SDS011;31619;49.008;12.106;2023-03-12T12:27:23;5.38;;;4.88;;
45905;SDS011;31619;49.008;12.106;2023-03-12T12:30:04;6.30;;;5.65;;
45905;SDS011;31619;49.008;12.106;2023-03-12T12:35:51;4.55;;;4.15;;
45905;SDS011;31619;49.008;12.106;2023-03-12T12:38:20;5.53;;;5.03;;
45905;SDS011;31619;49.008;12.106;2023-03-12T12:44:30;5.85;;;4.97;;
45905;SDS011;31619;49.008;12.106;2023-03-12T12:46:38;6.97;;;5.47;;
45905;SDS011;31619;49.008;12.106;2023-03-12T12:52:21;5.97;;;5.30;;
45905;SDS011;31619;49.008;12.106;2023-03-12T12:57:34;5.68;;;5.07;;
45905;SDS011;31619;49.008;12.106;2023-03-12T13:00:19;6.20;;;5.70;;
45905;SDS011;31619;49.008;12.106;2023-03-12T13:02:55;5.65;;;5.07;;
45905;SDS011;31619;49.008;12.106;2023-03-12T13:05:39;6.00;;;5.32;;
45905;SDS011;31619;49.008;12.106;2023-03-12T13:13:42;5.90;;;5.18;;
45905;SDS011;31619;49.008;12.106;2023-03-12T13:16:16;8.63;;;6.22;;
45905;SDS011;31619;49.008;12.106;2023-03-12T13:18:59;7.05;;;6.25;;
45905;SDS011;31619;49.008;12.106;2023-03-12T13:21:44;6.20;;;5.60;;
45905;SDS011;31619;49.008;12.106;2023-03-12T13:27:24;7.00;;;6.30;;
45905;SDS011;31619;49.008;12.106;2023-03-12T13:29:54;7.22;;;6.53;;
45905;SDS011;31619;49.008;12.106;2023-03-12T13:43:12;11.77;;;7.68;;
45905;SDS011;31619;49.008;12.106;2023-03-12T13:48:13;9.38;;;6.93;;
45905;SDS011;31619;49.008;12.106;2023-03-12T13:50:47;8.82;;;6.70;;
45905;SDS011;31619;49.008;12.106;2023-03-12T13:53:19;7.55;;;6.85;;
45905;SDS011;31619;49.008;12.106;2023-03-12T13:56:02;8.88;;;8.00;;
45905;SDS011;31619;49.008;12.106;2023-03-12T13:58:40;7.78;;;7.07;;
45905;SDS011;31619;49.008;12.106;2023-03-12T14:01:14;7.82;;;7.03;;
45905;SDS011;31619;49.008;12.106;2023-03-12T14:03:51;8.00;;;7.22;;
45905;SDS011;31619;49.008;12.106;2023-03-12T14:06:22;8.85;;;7.85;;
45905;SDS011;31619;49.008;12.106;2023-03-12T14:11:48;9.52;;;7.30;;
45905;SDS011;31619;49.008;12.106;2023-03-12T14:14:21;8.57;;;7.75;;
45905;SDS011;31619;49.008;12.106;2023-03-12T14:17:23;7.28;;;6.68;;
45905;SDS011;31619;49.008;12.106;2023-03-12T14:22:36;6.88;;;6.28;;
45905;SDS011;31619;49.008;12.106;2023-03-12T14:25:13;7.22;;;6.53;;
45905;SDS011;31619;49.008;12.106;2023-03-12T14:28:00;7.30;;;6.60;;
45905;SDS011;31619;49.008;12.106;2023-03-12T14:32:55;6.72;;;6.13;;
45905;SDS011;31619;49.008;12.106;2023-03-12T14:35:32;8.02;;;7.30;;
45905;SDS011;31619;49.008;12.106;2023-03-12T14:38:25;8.27;;;7.47;;
45905;SDS011;31619;49.008;12.106;2023-03-12T14:43:38;8.55;;;7.70;;
45905;SDS011;31619;49.008;12.106;2023-03-12T14:46:13;8.40;;;7.60;;
45905;SDS011;31619;49.008;12.106;2023-03-12T14:48:41;8.82;;;7.95;;
45905;SDS011;31619;49.008;12.106;2023-03-12T14:51:15;8.70;;;7.80;;
45905;SDS011;31619;49.008;12.106;2023-03-12T14:53:45;9.77;;;8.20;;
45905;SDS011;31619;49.008;12.106;2023-03-12T14:56:15;9.45;;;8.50;;
45905;SDS011;31619;49.008;12.106;2023-03-12T14:58:49;9.25;;;8.35;;
45905;SDS011;31619;49.008;12.106;2023-03-12T15:01:26;8.77;;;7.78;;
45905;SDS011;31619;49.008;12.106;2023-03-12T15:03:58;9.20;;;8.13;;
45905;SDS011;31619;49.008;12.106;2023-03-12T15:06:30;8.82;;;8.02;;
45905;SDS011;31619;49.008;12.106;2023-03-12T15:08:59;9.13;;;8.23;;
45905;SDS011;31619;49.008;12.106;2023-03-12T15:11:28;10.43;;;8.27;;
45905;SDS011;31619;49.008;12.106;2023-03-12T15:13:56;9.95;;;9.00;;
45905;SDS011;31619;49.008;12.106;2023-03-12T15:16:31;10.13;;;9.07;;
45905;SDS011;31619;49.008;12.106;2023-03-12T15:18:57;9.57;;;8.30;;
45905;SDS011;31619;49.008;12.106;2023-03-12T15:21:23;9.25;;;8.35;;
45905;SDS011;31619;49.008;12.106;2023-03-12T15:23:50;10.10;;;9.07;;
45905;SDS011;31619;49.008;12.106;2023-03-12T15:28:55;8.90;;;8.10;;
45905;SDS011;31619;49.008;12.106;2023-03-12T15:31:42;9.38;;;8.52;;
45905;SDS011;31619;49.008;12.106;2023-03-12T15:34:13;9.32;;;8.40;;
45905;SDS011;31619;49.008;12.106;2023-03-12T15:37:01;8.05;;;7.25;;
45905;SDS011;31619;49.008;12.106;2023-03-12T15:39:51;8.65;;;7.72;;
45905;SDS011;31619;49.008;12.106;2023-03-12T15:42:19;8.80;;;7.97;;
45905;SDS011;31619;49.008;12.106;2023-03-12T15:44:48;8.60;;;7.80;;
45905;SDS011;31619;49.008;12.106;2023-03-12T15:47:16;9.43;;;8.35;;
45905;SDS011;31619;49.008;12.106;2023-03-12T15:49:47;10.25;;;9.13;;
45905;SDS011;31619;49.008;12.106;2023-03-12T15:52:30;11.45;;;8.02;;
45905;SDS011;31619;49.008;12.106;2023-03-12T15:57:50;9.48;;;8.57;;
45905;SDS011;31619;49.008;12.106;2023-03-12T16:00:19;11.48;;;9.18;;
45905;SDS011;31619;49.008;12.106;2023-03-12T16:03:03;9.60;;;8.70;;
45905;SDS011;31619;49.008;12.106;2023-03-12T16:05:32;9.82;;;8.82;;
45905;SDS011;31619;49.008;12.106;2023-03-12T16:08:00;10.32;;;9.07;;
45905;SDS011;31619;49.008;12.106;2023-03-12T16:10:36;9.85;;;8.98;;
45905;SDS011;31619;49.008;12.106;2023-03-12T16:13:03;9.85;;;8.88;;
45905;SDS011;31619;49.008;12.106;2023-03-12T16:15:30;10.13;;;9.13;;
45905;SDS011;31619;49.008;12.106;2023-03-12T16:17:58;12.60;;;9.15;;
45905;SDS011;31619;49.008;12.106;2023-03-12T16:20:24;11.75;;;10.38;;
45905;SDS011;31619;49.008;12.106;2023-03-12T16:22:50;9.98;;;8.98;;
45905;SDS011;31619;49.008;12.106;2023-03-12T16:25:16;11.18;;;9.45;;
45905;SDS011;31619;49.008;12.106;2023-03-12T16:27:44;8.93;;;8.20;;
45905;SDS011;31619;49.008;12.106;2023-03-12T16:30:14;10.00;;;9.00;;
45905;SDS011;31619;49.008;12.106;2023-03-12T16:32:42;10.07;;;9.18;;
45905;SDS011;31619;49.008;12.106;2023-03-12T16:35:12;10.13;;;9.13;;
45905;SDS011;31619;49.008;12.106;2023-03-12T16:37:42;11.57;;;10.38;;